createdAt,value
2019-03-22T00:00:13.757Z,7.07
2019-03-22T00:02:42.370Z,8.40
2019-03-22T00:05:11.089Z,7.87
2019-03-22T00:07:39.745Z,7.20
2019-03-22T00:10:08.967Z,7.73
2019-03-22T00:12:37.590Z,8.83
2019-03-22T00:15:08.016Z,7.67
2019-03-22T00:17:36.636Z,9.13
2019-03-22T00:20:08.508Z,7.73
2019-03-22T00:22:37.164Z,8.30
2019-03-22T00:25:06.989Z,8.57
2019-03-22T00:27:35.614Z,9.10
2019-03-22T00:30:09.127Z,7.13
2019-03-22T00:32:37.819Z,7.70
2019-03-22T00:35:08.215Z,7.60
2019-03-22T00:37:36.876Z,9.73
2019-03-22T00:40:07.100Z,8.30
2019-03-22T00:42:35.721Z,8.10
2019-03-22T00:45:06.181Z,7.53
2019-03-22T00:47:34.805Z,8.67
2019-03-22T00:50:05.362Z,7.97
2019-03-22T00:52:34.018Z,8.77
2019-03-22T00:55:02.642Z,11.17
2019-03-22T00:57:31.257Z,8.50
2019-03-22T00:59:59.918Z,8.80
2019-03-22T01:02:28.543Z,9.67
2019-03-22T01:04:57.216Z,8.77
2019-03-22T01:07:25.881Z,8.13
2019-03-22T01:09:54.498Z,8.43
2019-03-22T01:12:23.111Z,9.23
2019-03-22T01:14:51.757Z,8.87
2019-03-22T01:17:20.372Z,8.50
2019-03-22T01:19:48.995Z,8.47
2019-03-22T01:22:17.646Z,10.77
2019-03-22T01:24:46.335Z,10.03
2019-03-22T01:27:14.953Z,10.43
2019-03-22T01:29:43.613Z,10.03
2019-03-22T01:32:12.230Z,9.83
2019-03-22T01:34:40.846Z,10.10
2019-03-22T01:37:09.522Z,10.20
2019-03-22T01:39:38.137Z,9.83
2019-03-22T01:42:06.763Z,10.40
2019-03-22T01:44:35.419Z,10.10
2019-03-22T01:47:04.031Z,10.27
2019-03-22T01:49:32.646Z,9.97
2019-03-22T01:52:01.293Z,8.63
2019-03-22T01:54:29.905Z,9.97
2019-03-22T01:56:58.520Z,9.17
2019-03-22T01:59:27.192Z,8.80
2019-03-22T02:01:55.805Z,10.23
2019-03-22T02:04:24.418Z,9.23
2019-03-22T02:06:53.069Z,9.73
2019-03-22T02:09:21.696Z,9.17
2019-03-22T02:11:50.307Z,7.33
2019-03-22T02:14:18.952Z,7.60
2019-03-22T02:16:47.579Z,7.73
2019-03-22T02:19:16.194Z,9.07
2019-03-22T02:21:45.049Z,8.40
2019-03-22T02:24:13.676Z,8.47
2019-03-22T02:26:42.282Z,9.30
2019-03-22T02:29:10.931Z,7.97
2019-03-22T02:31:39.549Z,7.53
2019-03-22T02:34:08.166Z,7.63
2019-03-22T02:36:36.891Z,7.77
2019-03-22T02:39:06.808Z,8.83
2019-03-22T02:41:35.435Z,8.50
2019-03-22T02:44:04.094Z,8.90
2019-03-22T02:46:32.703Z,8.23
2019-03-22T02:49:01.332Z,8.97
2019-03-22T02:51:29.964Z,8.27
2019-03-22T02:53:58.506Z,8.43
2019-03-22T02:56:27.122Z,7.70
2019-03-22T02:58:59.130Z,8.57
2019-03-22T03:01:26.116Z,8.57
2019-03-22T03:03:54.728Z,8.63
2019-03-22T03:06:23.377Z,8.90
2019-03-22T03:08:51.995Z,8.80
2019-03-22T03:11:20.621Z,8.43
2019-03-22T03:13:49.271Z,8.43
2019-03-22T03:16:17.809Z,8.90
2019-03-22T03:18:46.426Z,7.90
2019-03-22T03:21:15.090Z,6.87
2019-03-22T03:23:43.701Z,8.67
2019-03-22T03:26:12.314Z,7.27
2019-03-22T03:28:40.964Z,9.10
2019-03-22T03:31:09.582Z,7.87
2019-03-22T03:33:38.208Z,9.10
2019-03-22T03:36:06.853Z,8.97
2019-03-22T03:38:35.409Z,8.27
2019-03-22T03:41:04.014Z,8.20
2019-03-22T03:43:32.675Z,9.17
2019-03-22T03:46:01.289Z,8.70
2019-03-22T03:48:29.914Z,8.00
2019-03-22T03:50:58.583Z,7.57
2019-03-22T03:53:27.212Z,9.43
2019-03-22T03:55:55.834Z,9.57
2019-03-22T03:58:24.472Z,10.23
2019-03-22T04:00:53.099Z,10.93
2019-03-22T04:03:21.720Z,10.07
2019-03-22T04:05:50.392Z,10.07
2019-03-22T04:08:19.028Z,9.70
2019-03-22T04:10:47.648Z,10.33
2019-03-22T04:13:16.306Z,8.77
2019-03-22T04:15:44.920Z,9.07
2019-03-22T04:18:13.533Z,9.40
2019-03-22T04:20:42.197Z,8.60
2019-03-22T04:23:10.822Z,8.40
2019-03-22T04:25:39.368Z,9.40
2019-03-22T04:28:08.051Z,8.90
2019-03-22T04:30:36.637Z,7.50
2019-03-22T04:33:06.838Z,8.13
2019-03-22T04:35:35.687Z,8.97
2019-03-22T04:38:04.306Z,8.07
2019-03-22T04:40:32.936Z,8.23
2019-03-22T04:43:01.726Z,8.53
2019-03-22T04:45:32.042Z,7.37
2019-03-22T04:48:06.629Z,7.13
2019-03-22T04:50:38.114Z,9.40
2019-03-22T04:53:09.375Z,7.93
2019-03-22T04:55:40.770Z,7.33
2019-03-22T04:58:11.095Z,6.83
2019-03-22T05:00:40.312Z,9.33
2019-03-22T05:03:10.167Z,9.47
2019-03-22T05:05:38.887Z,9.10
2019-03-22T05:08:08.604Z,8.33
2019-03-22T05:10:38.458Z,9.07
2019-03-22T05:13:09.951Z,10.23
2019-03-22T05:15:39.146Z,11.50
2019-03-22T05:18:08.513Z,9.17
2019-03-22T05:20:38.133Z,10.70
2019-03-22T05:23:07.266Z,10.23
2019-03-22T05:25:38.738Z,11.57
2019-03-22T05:28:09.740Z,11.17
2019-03-22T05:31:02.334Z,10.57
2019-03-22T05:33:30.961Z,11.83
2019-03-22T05:35:59.597Z,11.57
2019-03-22T05:38:28.245Z,12.37
2019-03-22T05:40:56.876Z,12.67
2019-03-22T05:43:25.486Z,13.37
2019-03-22T05:45:54.152Z,14.77
2019-03-22T05:48:22.770Z,13.13
2019-03-22T05:50:51.469Z,12.67
2019-03-22T05:53:20.133Z,11.87
2019-03-22T05:55:48.764Z,12.57
2019-03-22T05:58:17.384Z,13.40
2019-03-22T06:00:46.054Z,11.57
2019-03-22T06:03:14.687Z,13.23
2019-03-22T06:05:43.308Z,13.33
2019-03-22T06:08:11.966Z,13.37
2019-03-22T06:10:40.594Z,12.83
2019-03-22T06:13:09.214Z,11.40
2019-03-22T06:15:37.872Z,12.77
2019-03-22T06:18:06.500Z,11.87
2019-03-22T06:20:35.131Z,11.17
2019-03-22T06:23:03.994Z,12.87
2019-03-22T06:25:32.632Z,10.00
2019-03-22T06:28:01.254Z,12.23
2019-03-22T06:30:29.931Z,12.07
2019-03-22T06:32:58.558Z,12.13
2019-03-22T06:35:27.184Z,13.03
2019-03-22T06:37:55.851Z,14.93
2019-03-22T06:40:24.476Z,15.83
2019-03-22T06:42:53.093Z,14.93
2019-03-22T06:45:21.758Z,15.63
2019-03-22T06:47:50.391Z,15.70
2019-03-22T06:50:19.015Z,16.83
2019-03-22T06:52:47.670Z,16.57
2019-03-22T06:55:16.300Z,17.17
2019-03-22T06:57:44.927Z,16.20
2019-03-22T07:02:56.493Z,14.70
2019-03-22T07:05:25.122Z,15.47
2019-03-22T07:07:53.674Z,14.33
2019-03-22T07:10:22.403Z,14.87
2019-03-22T07:12:51.040Z,11.00
2019-03-22T07:15:19.666Z,11.03
2019-03-22T07:17:48.328Z,10.70
2019-03-22T07:20:16.968Z,12.53
2019-03-22T07:22:45.588Z,12.37
2019-03-22T07:25:14.271Z,10.10
2019-03-22T07:27:42.895Z,11.97
2019-03-22T07:30:18.964Z,11.63
2019-03-22T07:32:44.790Z,11.53
2019-03-22T07:35:13.533Z,10.77
2019-03-22T07:37:42.137Z,11.33
2019-03-22T07:40:12.119Z,10.10
2019-03-22T07:42:40.742Z,10.83
2019-03-22T07:45:12.010Z,11.10
2019-03-22T07:47:40.663Z,11.73
2019-03-22T07:50:11.468Z,11.10
2019-03-22T07:52:40.108Z,11.80
2019-03-22T07:55:08.867Z,11.10
2019-03-22T07:57:37.508Z,10.87
2019-03-22T08:00:08.875Z,10.90
2019-03-22T08:02:37.539Z,10.17
2019-03-22T08:05:07.380Z,11.40
2019-03-22T08:07:36.026Z,9.70
2019-03-22T08:10:06.867Z,10.03
2019-03-22T08:12:35.483Z,9.47
2019-03-22T08:15:08.208Z,10.57
2019-03-22T08:17:36.310Z,10.33
2019-03-22T08:20:07.034Z,9.57
2019-03-22T08:22:35.653Z,9.53
2019-03-22T08:25:04.713Z,9.90
2019-03-22T08:27:33.346Z,9.87
2019-03-22T08:30:01.976Z,9.00
2019-03-22T08:32:30.616Z,9.40
2019-03-22T08:34:59.292Z,9.37
2019-03-22T08:37:27.910Z,10.87
2019-03-22T08:39:56.501Z,8.13
2019-03-22T08:42:25.131Z,6.73
2019-03-22T08:44:53.735Z,6.40
2019-03-22T08:47:33.095Z,6.93
2019-03-22T08:49:52.746Z,6.87
2019-03-22T08:52:21.394Z,5.70
2019-03-22T08:54:50.047Z,6.47
2019-03-22T08:57:18.610Z,6.50
2019-03-22T08:59:47.254Z,6.67
2019-03-22T09:02:15.985Z,6.70
2019-03-22T09:04:44.684Z,7.83
2019-03-22T09:07:13.324Z,6.63
2019-03-22T09:09:42.101Z,6.87
2019-03-22T09:12:10.712Z,6.07
2019-03-22T09:14:39.291Z,7.20
2019-03-22T09:17:07.980Z,6.57
2019-03-22T09:19:36.618Z,6.47
2019-03-22T09:22:05.283Z,7.00
2019-03-22T09:24:39.105Z,6.37
2019-03-22T09:27:04.284Z,6.60
2019-03-22T09:29:32.940Z,6.13
2019-03-22T09:32:01.692Z,5.33
2019-03-22T09:34:33.935Z,6.47
2019-03-22T09:37:00.665Z,6.27
2019-03-22T09:39:29.294Z,6.57
2019-03-22T09:41:57.947Z,5.60
2019-03-22T09:44:28.231Z,5.63
2019-03-22T09:46:56.991Z,5.07
2019-03-22T09:49:25.665Z,5.90
2019-03-22T09:51:55.305Z,6.40
2019-03-22T09:54:24.073Z,7.07
2019-03-22T09:56:52.734Z,5.83
2019-03-22T09:59:21.347Z,5.13
2019-03-22T10:01:49.990Z,5.97
2019-03-22T10:04:18.711Z,6.40
2019-03-22T10:06:47.517Z,6.43
2019-03-22T10:09:16.131Z,7.33
2019-03-22T10:11:44.864Z,5.63
2019-03-22T10:14:13.443Z,6.43
2019-03-22T10:16:42.102Z,6.13
2019-03-22T10:19:10.723Z,6.37
2019-03-22T10:21:39.341Z,6.13
2019-03-22T10:24:08.037Z,6.27
2019-03-22T10:26:36.722Z,6.53
2019-03-22T10:29:06.922Z,5.57
2019-03-22T10:31:37.543Z,5.90
2019-03-22T10:34:06.095Z,5.77
2019-03-22T10:36:34.773Z,6.10
2019-03-22T10:39:04.317Z,6.67
2019-03-22T10:41:33.085Z,6.43
2019-03-22T10:44:01.650Z,6.03
2019-03-22T10:46:30.373Z,6.13
2019-03-22T10:48:59.004Z,6.27
2019-03-22T10:51:27.621Z,6.10
2019-03-22T10:53:56.303Z,6.13
2019-03-22T10:56:25.126Z,6.60
2019-03-22T10:58:53.703Z,6.30
2019-03-22T11:01:22.350Z,6.43
2019-03-22T11:03:51.227Z,5.77
2019-03-22T11:06:26.125Z,6.53
2019-03-22T11:08:50.250Z,6.27
2019-03-22T11:11:18.866Z,6.47
2019-03-22T11:13:47.563Z,6.80
2019-03-22T11:16:16.222Z,6.40
2019-03-22T11:18:44.847Z,6.43
2019-03-22T11:21:13.479Z,7.37
2019-03-22T11:23:42.129Z,6.30
2019-03-22T11:26:10.750Z,6.83
2019-03-22T11:28:39.375Z,5.67
2019-03-22T11:31:08.041Z,7.17
2019-03-22T11:33:36.671Z,5.70
2019-03-22T11:36:05.385Z,7.40
2019-03-22T11:38:34.043Z,6.37
2019-03-22T11:41:02.669Z,6.33
2019-03-22T11:43:31.294Z,6.40
2019-03-22T11:45:59.944Z,6.03
2019-03-22T11:48:28.564Z,6.27
2019-03-22T11:50:57.198Z,6.33
2019-03-22T11:53:25.895Z,5.77
2019-03-22T11:55:54.486Z,5.57
2019-03-22T11:58:23.106Z,5.67
2019-03-22T12:00:51.773Z,5.37
2019-03-22T12:03:20.393Z,5.80
2019-03-22T12:05:49.020Z,6.87
2019-03-22T12:08:17.675Z,6.80
2019-03-22T12:10:46.299Z,6.27
2019-03-22T12:13:14.924Z,5.77
2019-03-22T12:15:43.582Z,6.13
2019-03-22T12:18:12.204Z,6.03
2019-03-22T12:20:40.821Z,5.87
2019-03-22T12:23:09.481Z,6.37
2019-03-22T12:25:38.113Z,6.00
2019-03-22T12:28:06.740Z,5.73
2019-03-22T12:30:35.403Z,5.50
2019-03-22T12:33:04.017Z,5.00
2019-03-22T12:35:32.642Z,5.80
2019-03-22T12:38:01.297Z,5.10
2019-03-22T12:40:29.917Z,5.13
2019-03-22T12:42:58.551Z,6.37
2019-03-22T12:45:32.566Z,7.27
2019-03-22T12:48:01.192Z,7.50
2019-03-22T12:50:29.828Z,5.43
2019-03-22T12:52:58.479Z,6.13
2019-03-22T12:55:27.103Z,6.87
2019-03-22T12:57:55.731Z,7.17
2019-03-22T13:00:27.628Z,5.57
2019-03-22T13:02:56.469Z,5.37
2019-03-22T13:05:25.085Z,5.73
2019-03-22T13:07:53.756Z,5.67
2019-03-22T13:10:27.235Z,5.67
2019-03-22T13:12:56.052Z,5.80
2019-03-22T13:15:24.757Z,5.40
2019-03-22T13:17:53.357Z,5.97
2019-03-22T13:20:21.987Z,5.63
2019-03-22T13:42:54.085Z,5.67
2019-03-22T13:45:22.709Z,5.53
2019-03-22T13:47:51.335Z,8.80
2019-03-22T13:50:20.083Z,5.73
2019-03-22T13:52:48.710Z,5.40
2019-03-22T13:55:17.339Z,5.63
2019-03-22T13:57:46.008Z,4.90
2019-03-22T14:00:18.325Z,4.83
2019-03-22T14:02:46.947Z,5.30
2019-03-22T14:05:15.678Z,5.33
2019-03-22T14:07:44.317Z,5.13
2019-03-22T14:10:32.735Z,3.93
2019-03-22T14:13:02.654Z,3.87
2019-03-22T14:15:31.282Z,4.50
2019-03-22T14:18:00.123Z,4.10
2019-03-22T14:20:29.141Z,3.93
2019-03-22T14:22:57.763Z,3.80
2019-03-22T14:25:26.427Z,3.93
2019-03-22T14:27:55.052Z,4.47
2019-03-22T14:30:23.677Z,4.03
2019-03-22T14:32:52.327Z,4.20
2019-03-22T14:35:20.957Z,3.50
2019-03-22T14:37:49.584Z,3.57
2019-03-22T14:40:18.242Z,5.23
2019-03-22T14:42:46.881Z,4.33
2019-03-22T14:45:15.699Z,3.60
2019-03-22T14:47:44.379Z,3.40
2019-03-22T14:50:13.094Z,4.00
2019-03-22T14:52:41.727Z,3.63
2019-03-22T14:55:10.387Z,4.27
2019-03-22T14:57:48.173Z,4.50
2019-03-22T15:00:11.695Z,4.57
2019-03-22T15:02:40.352Z,4.20
2019-03-22T15:05:08.960Z,4.00
2019-03-22T15:07:37.687Z,4.80
2019-03-22T15:10:11.180Z,7.43
2019-03-22T15:12:39.814Z,5.03
2019-03-22T15:15:14.019Z,4.23
2019-03-22T15:17:59.231Z,4.83
2019-03-22T15:20:32.181Z,4.70
2019-03-22T15:23:02.438Z,4.30
2019-03-22T15:25:38.552Z,5.30
2019-03-22T15:28:24.988Z,5.57
2019-03-22T15:31:07.136Z,4.90
2019-03-22T15:33:37.473Z,5.30
2019-03-22T15:38:46.333Z,5.80
2019-03-22T15:41:15.047Z,7.07
2019-03-22T15:43:43.684Z,7.27
2019-03-22T15:46:12.358Z,11.17
2019-03-22T15:48:40.918Z,8.43
2019-03-22T15:51:09.604Z,8.93
2019-03-22T15:53:38.267Z,8.13
2019-03-22T15:56:06.889Z,9.97
2019-03-22T15:58:36.287Z,9.53
2019-03-22T16:01:05.758Z,6.43
2019-03-22T16:03:43.888Z,5.70
2019-03-22T16:06:04.717Z,5.33
2019-03-22T16:08:33.376Z,5.50
2019-03-22T16:11:01.998Z,9.63
2019-03-22T16:13:30.649Z,6.97
2019-03-22T16:15:59.290Z,7.93
2019-03-22T16:18:27.907Z,5.23
2019-03-22T16:21:00.006Z,6.57
2019-03-22T16:23:26.915Z,6.87
2019-03-22T16:25:55.536Z,6.23
2019-03-22T16:28:24.259Z,5.80
2019-03-22T16:30:53.196Z,10.20
2019-03-22T16:33:22.058Z,6.30
2019-03-22T16:35:50.898Z,6.27
2019-03-22T16:38:19.820Z,5.13
2019-03-22T16:40:48.705Z,5.90
2019-03-22T16:43:17.580Z,6.13
2019-03-22T16:45:46.494Z,6.60
2019-03-22T16:48:15.349Z,8.33
2019-03-22T16:50:44.200Z,6.90
2019-03-22T16:53:13.215Z,7.73
2019-03-22T16:55:42.071Z,6.27
2019-03-22T16:58:10.931Z,9.37
2019-03-22T17:00:40.342Z,7.30
2019-03-22T17:03:09.199Z,7.80
2019-03-22T17:05:38.455Z,7.60
2019-03-22T17:08:07.396Z,7.77
2019-03-22T17:10:36.247Z,8.03
2019-03-22T17:13:05.403Z,9.03
2019-03-22T17:15:34.317Z,8.67
2019-03-22T17:18:03.168Z,6.97
2019-03-22T17:20:32.016Z,6.30
2019-03-22T17:23:00.932Z,6.70
2019-03-22T17:25:29.806Z,6.77
2019-03-22T17:27:58.667Z,6.50
2019-03-22T17:30:27.606Z,6.70
2019-03-22T17:32:56.471Z,7.07
2019-03-22T17:35:25.322Z,6.30
2019-03-22T17:37:54.253Z,6.80
2019-03-22T17:40:23.122Z,7.10
2019-03-22T17:42:53.029Z,6.97
2019-03-22T17:45:22.388Z,7.73
2019-03-22T17:47:51.268Z,8.60
2019-03-22T17:50:20.358Z,9.17
2019-03-22T17:52:49.274Z,9.83
2019-03-22T17:55:18.327Z,9.03
2019-03-22T17:57:50.500Z,7.97
2019-03-22T18:00:21.820Z,7.33
2019-03-22T18:02:50.695Z,8.13
2019-03-22T18:05:19.573Z,7.87
2019-03-22T18:07:48.511Z,7.60
2019-03-22T18:10:17.373Z,7.20
2019-03-22T18:12:46.233Z,6.27
2019-03-22T18:15:15.165Z,6.77
2019-03-22T18:17:44.034Z,7.00
2019-03-22T18:20:14.957Z,6.93
2019-03-22T18:22:43.878Z,6.70
2019-03-22T18:25:12.926Z,7.27
2019-03-22T18:27:41.801Z,6.87
2019-03-22T18:30:15.067Z,7.40
2019-03-22T18:32:43.918Z,8.20
2019-03-22T18:35:13.103Z,7.33
2019-03-22T18:37:42.020Z,7.07
2019-03-22T18:40:12.712Z,7.10
2019-03-22T18:42:41.582Z,6.20
2019-03-22T18:45:14.726Z,6.87
2019-03-22T18:47:43.690Z,5.87
2019-03-22T18:50:14.064Z,5.47
2019-03-22T18:52:43.295Z,6.00
2019-03-22T18:55:12.238Z,5.93
2019-03-22T18:57:41.115Z,8.53
2019-03-22T19:00:18.430Z,12.83
2019-03-22T19:02:47.389Z,16.93
2019-03-22T19:05:16.747Z,20.23
2019-03-22T19:07:45.775Z,16.67
2019-03-22T19:10:16.263Z,13.03
2019-03-22T19:12:45.171Z,11.60
2019-03-22T19:15:14.726Z,16.00
2019-03-22T19:17:43.604Z,21.63
2019-03-22T19:20:13.759Z,19.00
2019-03-22T19:22:42.687Z,14.03
2019-03-22T19:25:15.526Z,23.37
2019-03-22T19:27:44.321Z,23.83
2019-03-22T19:30:14.655Z,18.73
2019-03-22T19:32:43.530Z,17.80
2019-03-22T19:35:13.196Z,23.97
2019-03-22T19:37:42.133Z,18.03
2019-03-22T19:40:13.603Z,14.53
2019-03-22T19:42:42.470Z,13.27
2019-03-22T19:45:13.988Z,15.73
2019-03-22T19:47:42.934Z,15.10
2019-03-22T19:50:14.283Z,12.07
2019-03-22T19:52:43.264Z,13.50
2019-03-22T19:55:14.010Z,14.07
2019-03-22T19:57:43.012Z,12.00
2019-03-22T20:00:19.871Z,10.93
2019-03-22T20:02:49.336Z,8.00
2019-03-22T20:05:24.294Z,9.13
2019-03-22T20:07:53.190Z,8.67
2019-03-22T20:10:22.089Z,6.93
2019-03-22T20:12:51.043Z,6.87
2019-03-22T20:15:20.006Z,7.10
2019-03-22T20:17:48.922Z,7.13
2019-03-22T20:20:17.976Z,6.70
2019-03-22T20:22:46.870Z,6.07
2019-03-22T20:25:15.820Z,6.10
2019-03-22T20:27:44.745Z,6.53
2019-03-22T20:30:15.805Z,5.70
2019-03-22T20:32:44.784Z,5.43
2019-03-22T20:35:16.599Z,4.97
2019-03-22T20:37:44.569Z,6.60
2019-03-22T20:40:16.573Z,6.20
2019-03-22T20:42:45.516Z,5.40
2019-03-22T20:45:23.691Z,5.57
2019-03-22T20:47:45.356Z,5.37
2019-03-22T20:50:14.657Z,4.10
2019-03-22T20:52:43.517Z,5.53
2019-03-22T20:55:12.575Z,8.70
2019-03-22T20:57:41.512Z,9.47
2019-03-22T21:00:19.253Z,10.47
2019-03-22T21:02:48.197Z,8.10
2019-03-22T21:05:26.358Z,8.43
2019-03-22T21:07:47.724Z,10.17
2019-03-22T21:10:16.644Z,7.70
2019-03-22T21:12:45.508Z,7.93
2019-03-22T21:15:23.769Z,8.20
2019-03-22T21:17:44.812Z,7.67
2019-03-22T21:20:13.440Z,7.30
2019-03-22T21:22:42.063Z,6.93
2019-03-22T21:25:11.325Z,7.37
2019-03-22T21:27:39.947Z,6.10
2019-03-22T21:30:10.731Z,6.97
2019-03-22T21:32:45.090Z,7.03
2019-03-22T21:35:09.862Z,7.20
2019-03-22T21:37:38.489Z,7.37
2019-03-22T21:40:08.129Z,7.50
2019-03-22T21:42:36.756Z,6.80
2019-03-22T21:45:08.962Z,7.90
2019-03-22T21:47:37.631Z,7.47
2019-03-22T21:50:08.356Z,6.73
2019-03-22T21:52:37.050Z,7.90
2019-03-22T21:55:07.417Z,7.23
2019-03-22T21:57:36.051Z,7.47
2019-03-22T22:00:06.948Z,8.07
2019-03-22T22:02:35.619Z,7.30
2019-03-22T22:05:05.745Z,7.90
2019-03-22T22:07:34.308Z,8.00
2019-03-22T22:10:03.358Z,6.47
2019-03-22T22:12:31.990Z,6.93
2019-03-22T22:15:00.625Z,7.03
2019-03-22T22:17:29.210Z,7.17
2019-03-22T22:19:57.837Z,6.83
2019-03-22T22:22:26.475Z,6.30
2019-03-22T22:24:55.066Z,7.73
2019-03-22T22:27:23.626Z,7.00
2019-03-22T22:29:52.254Z,6.47
2019-03-22T22:32:21.143Z,6.40
2019-03-22T22:34:49.839Z,6.30
2019-03-22T22:37:18.472Z,5.57
2019-03-22T22:39:47.149Z,7.03
2019-03-22T22:42:15.770Z,6.47
2019-03-22T22:44:44.401Z,6.57
2019-03-22T22:47:13.068Z,6.50
2019-03-22T22:49:41.636Z,6.33
2019-03-22T22:52:10.267Z,6.47
2019-03-22T22:54:38.924Z,6.90
2019-03-22T22:57:10.387Z,6.70
2019-03-22T22:59:39.025Z,7.67
2019-03-22T23:02:07.758Z,7.20
2019-03-22T23:04:36.378Z,7.37
2019-03-22T23:07:05.011Z,7.10
2019-03-22T23:09:33.640Z,6.47
2019-03-22T23:12:02.234Z,6.57
2019-03-22T23:14:30.858Z,7.57
2019-03-22T23:16:59.536Z,8.30
2019-03-22T23:19:28.241Z,7.60
2019-03-22T23:21:56.866Z,7.07
2019-03-22T23:24:25.527Z,7.00
2019-03-22T23:26:54.164Z,7.10
2019-03-22T23:29:22.790Z,7.03
2019-03-22T23:31:51.474Z,6.90
2019-03-22T23:34:20.101Z,6.20
2019-03-22T23:36:48.732Z,6.43
2019-03-22T23:39:17.381Z,6.30
2019-03-22T23:41:46.024Z,6.43
2019-03-22T23:44:14.649Z,6.50
2019-03-22T23:46:43.301Z,6.90
2019-03-22T23:49:11.922Z,6.47
2019-03-22T23:51:40.628Z,7.90
2019-03-22T23:54:09.295Z,6.37
2019-03-22T23:56:37.851Z,6.50
2019-03-22T23:59:06.492Z,6.53
